createdAt,value
2022-10-14T00:01:59.173Z,16.40
2022-10-14T00:04:26.087Z,16.40
2022-10-14T00:06:52.993Z,16.40
2022-10-14T00:09:19.882Z,16.40
2022-10-14T00:11:46.902Z,16.40
2022-10-14T00:14:14.780Z,16.40
2022-10-14T00:16:42.095Z,16.40
2022-10-14T00:19:09.250Z,16.40
2022-10-14T00:21:36.923Z,16.40
2022-10-14T00:24:04.195Z,16.30
2022-10-14T00:26:32.220Z,16.30
2022-10-14T00:28:59.413Z,16.30
2022-10-14T00:31:26.654Z,16.30
2022-10-14T00:33:53.609Z,16.30
2022-10-14T00:36:21.208Z,16.30
2022-10-14T00:38:48.848Z,16.30
2022-10-14T00:41:17.727Z,16.30
2022-10-14T00:43:54.895Z,16.30
2022-10-14T00:46:24.797Z,16.30
2022-10-14T00:48:51.952Z,16.30
2022-10-14T00:51:19.098Z,16.30
2022-10-14T00:53:48.810Z,16.30
2022-10-14T00:56:16.508Z,16.30
2022-10-14T00:58:43.718Z,16.40
2022-10-14T01:01:10.737Z,16.30
2022-10-14T01:03:37.613Z,16.30
2022-10-14T01:06:34.088Z,16.30
2022-10-14T01:09:04.067Z,16.30
2022-10-14T01:11:34.174Z,16.20
2022-10-14T01:14:04.103Z,16.20
2022-10-14T01:16:34.629Z,16.20
2022-10-14T01:19:23.114Z,16.20
2022-10-14T01:21:53.842Z,16.20
2022-10-14T01:24:30.109Z,16.20
2022-10-14T01:27:14.147Z,16.20
2022-10-14T01:29:48.042Z,16.10
2022-10-14T01:32:22.441Z,16.10
2022-10-14T01:34:52.583Z,16.20
2022-10-14T01:37:22.209Z,16.10
2022-10-14T01:39:50.269Z,16.10
2022-10-14T01:42:18.600Z,16.10
2022-10-14T01:44:47.167Z,16.10
2022-10-14T01:47:14.042Z,16.10
2022-10-14T01:49:48.814Z,16.00
2022-10-14T01:52:17.223Z,16.00
2022-10-14T01:54:44.084Z,16.00
2022-10-14T01:57:16.291Z,16.00
2022-10-14T01:59:43.241Z,16.00
2022-10-14T02:02:11.494Z,16.00
2022-10-14T02:04:38.541Z,16.00
2022-10-14T02:07:10.407Z,16.00
2022-10-14T02:09:40.606Z,16.00
2022-10-14T02:12:23.252Z,16.00
2022-10-14T02:14:52.303Z,16.00
2022-10-14T02:17:19.143Z,16.00
2022-10-14T02:20:04.713Z,16.10
2022-10-14T02:22:35.961Z,16.00
2022-10-14T02:25:21.648Z,16.00
2022-10-14T02:27:49.067Z,16.00
2022-10-14T02:30:16.213Z,16.00
2022-10-14T02:32:43.121Z,16.00
2022-10-14T02:35:10.197Z,16.00
2022-10-14T02:37:37.225Z,16.10
2022-10-14T02:40:08.663Z,16.10
2022-10-14T02:42:35.748Z,16.10
2022-10-14T02:45:02.618Z,16.10
2022-10-14T02:47:29.492Z,16.10
2022-10-14T02:49:56.322Z,16.20
2022-10-14T02:52:23.637Z,16.20
2022-10-14T02:54:50.765Z,16.20
2022-10-14T02:57:19.060Z,16.20
2022-10-14T02:59:45.895Z,16.20
2022-10-14T03:02:12.952Z,16.20
2022-10-14T03:04:39.858Z,16.20
2022-10-14T03:07:06.722Z,16.20
2022-10-14T03:09:33.930Z,16.20
2022-10-14T03:12:00.770Z,16.20
2022-10-14T03:14:30.310Z,16.20
2022-10-14T03:16:57.380Z,16.10
2022-10-14T03:19:24.445Z,16.10
2022-10-14T03:21:51.850Z,16.10
2022-10-14T03:24:18.776Z,16.00
2022-10-14T03:26:45.708Z,16.10
2022-10-14T03:29:12.854Z,16.10
2022-10-14T03:31:39.700Z,16.10
2022-10-14T03:34:06.561Z,16.10
2022-10-14T03:36:33.430Z,16.10
2022-10-14T03:39:00.546Z,16.10
2022-10-14T03:41:27.515Z,16.00
2022-10-14T03:43:54.350Z,16.00
2022-10-14T03:46:21.372Z,16.00
2022-10-14T03:48:48.300Z,16.10
2022-10-14T03:51:15.372Z,16.10
2022-10-14T03:53:42.347Z,16.10
2022-10-14T03:56:09.295Z,16.00
2022-10-14T03:58:36.278Z,16.00
2022-10-14T04:01:03.223Z,16.10
2022-10-14T04:03:30.232Z,16.00
2022-10-14T04:05:57.077Z,16.00
2022-10-14T04:08:25.992Z,16.00
2022-10-14T04:10:54.322Z,16.00
2022-10-14T04:13:21.328Z,16.00
2022-10-14T04:15:48.419Z,16.00
2022-10-14T04:18:15.268Z,16.00
2022-10-14T04:20:42.092Z,16.00
2022-10-14T04:23:08.932Z,15.90
2022-10-14T04:25:37.541Z,15.90
2022-10-14T04:28:04.888Z,15.80
2022-10-14T04:30:32.005Z,15.80
2022-10-14T04:32:58.828Z,15.80
2022-10-14T04:35:26.694Z,15.80
2022-10-14T04:37:53.554Z,15.80
2022-10-14T04:40:23.590Z,15.70
2022-10-14T04:42:50.626Z,15.70
2022-10-14T04:45:17.739Z,15.60
2022-10-14T04:47:48.487Z,15.50
2022-10-14T04:50:15.916Z,15.50
2022-10-14T04:52:42.983Z,15.60
2022-10-14T04:55:09.882Z,15.60
2022-10-14T04:57:36.910Z,15.60
2022-10-14T05:00:04.553Z,15.70
2022-10-14T05:02:31.700Z,15.80
2022-10-14T05:04:59.770Z,15.80
2022-10-14T05:07:26.628Z,15.80
2022-10-14T05:09:56.857Z,15.80
2022-10-14T05:12:24.188Z,15.90
2022-10-14T05:14:55.839Z,15.90
2022-10-14T05:17:22.941Z,16.00
2022-10-14T05:19:49.865Z,16.00
2022-10-14T05:22:16.747Z,16.00
2022-10-14T05:24:44.050Z,15.90
2022-10-14T05:27:10.904Z,15.90
2022-10-14T05:29:38.271Z,15.90
2022-10-14T05:32:05.291Z,15.90
2022-10-14T05:34:32.213Z,15.90
2022-10-14T05:36:59.155Z,15.90
2022-10-14T05:39:26.314Z,15.90
2022-10-14T05:41:53.226Z,16.00
2022-10-14T05:44:21.117Z,16.00
2022-10-14T05:46:50.995Z,16.00
2022-10-14T05:49:17.835Z,16.10
2022-10-14T05:51:44.950Z,16.10
2022-10-14T05:54:12.616Z,16.10
2022-10-14T05:56:41.660Z,16.10
2022-10-14T05:59:12.148Z,16.10
2022-10-14T06:01:39.865Z,16.10
2022-10-14T06:04:06.792Z,16.20
2022-10-14T06:06:33.654Z,16.20
2022-10-14T06:09:00.518Z,16.20
2022-10-14T06:11:27.437Z,16.10
2022-10-14T06:13:54.499Z,16.10
2022-10-14T06:16:22.522Z,16.20
2022-10-14T06:18:54.115Z,16.30
2022-10-14T06:21:21.612Z,16.40
2022-10-14T06:23:48.570Z,16.40
2022-10-14T06:26:20.659Z,16.40
2022-10-14T06:28:47.841Z,16.50
2022-10-14T06:31:14.880Z,16.50
2022-10-14T06:33:44.016Z,16.60
2022-10-14T06:36:11.196Z,16.60
2022-10-14T06:38:38.105Z,16.70
2022-10-14T06:41:05.171Z,16.70
2022-10-14T06:43:32.129Z,16.60
2022-10-14T06:45:59.685Z,16.50
2022-10-14T06:48:26.933Z,16.50
2022-10-14T06:50:53.828Z,16.60
2022-10-14T06:53:21.570Z,16.60
2022-10-14T06:55:48.429Z,16.70
2022-10-14T06:58:15.420Z,16.70
2022-10-14T07:00:47.190Z,16.80
2022-10-14T07:03:15.222Z,16.80
2022-10-14T07:05:42.274Z,16.90
2022-10-14T07:08:11.454Z,16.90
2022-10-14T07:10:41.404Z,17.00
2022-10-14T07:13:08.951Z,16.90
2022-10-14T07:15:38.484Z,17.00
2022-10-14T07:18:06.176Z,16.90
2022-10-14T07:20:36.063Z,17.00
2022-10-14T07:23:03.021Z,17.00
2022-10-14T07:25:34.602Z,17.00
2022-10-14T07:28:04.656Z,17.10
2022-10-14T07:30:31.697Z,17.00
2022-10-14T07:33:04.998Z,17.00
2022-10-14T07:35:31.926Z,17.00
2022-10-14T07:37:59.386Z,17.00
2022-10-14T07:40:26.751Z,17.00
2022-10-14T07:42:55.122Z,17.00
2022-10-14T07:45:22.068Z,17.00
2022-10-14T07:47:51.737Z,16.80
2022-10-14T07:50:18.829Z,16.90
2022-10-14T07:52:45.797Z,16.90
2022-10-14T07:55:12.997Z,17.00
2022-10-14T07:57:40.128Z,17.00
2022-10-14T08:00:07.573Z,17.10
2022-10-14T08:02:35.147Z,17.20
2022-10-14T08:07:49.355Z,17.40
2022-10-14T08:10:16.450Z,17.30
2022-10-14T08:12:43.527Z,17.40
2022-10-14T08:15:10.821Z,17.40
2022-10-14T08:17:51.669Z,17.50
2022-10-14T08:20:18.865Z,17.50
2022-10-14T08:22:47.181Z,17.60
2022-10-14T08:25:14.252Z,17.60
2022-10-14T08:27:41.134Z,17.60
2022-10-14T08:30:11.799Z,17.70
2022-10-14T08:32:52.587Z,17.70
2022-10-14T08:35:19.522Z,17.80
2022-10-14T08:38:15.686Z,17.80
2022-10-14T08:40:58.829Z,17.80
2022-10-14T08:43:31.033Z,18.00
2022-10-14T08:45:59.090Z,18.00
2022-10-14T08:48:26.277Z,18.10
2022-10-14T08:50:57.572Z,18.20
2022-10-14T08:53:28.826Z,18.20
2022-10-14T08:55:57.334Z,18.30
2022-10-14T08:58:29.066Z,18.30
2022-10-14T09:00:56.547Z,18.50
2022-10-14T09:03:24.873Z,18.70
2022-10-14T09:05:57.556Z,18.80
2022-10-14T09:08:28.502Z,18.80
2022-10-14T09:10:55.434Z,18.80
2022-10-14T09:13:32.841Z,18.90
2022-10-14T09:16:06.851Z,18.90
2022-10-14T09:18:40.620Z,19.00
2022-10-14T09:21:34.051Z,19.10
2022-10-14T09:24:12.908Z,19.20
2022-10-14T09:26:40.839Z,19.40
2022-10-14T09:29:34.597Z,19.50
2022-10-14T09:32:02.439Z,19.60
2022-10-14T09:34:30.654Z,19.70
2022-10-14T09:36:58.782Z,19.90
2022-10-14T09:39:25.739Z,20.20
2022-10-14T09:41:52.814Z,20.70
2022-10-14T09:44:22.666Z,21.60
2022-10-14T09:46:50.657Z,22.50
2022-10-14T09:49:18.792Z,22.80
2022-10-14T09:51:48.112Z,22.90
2022-10-14T09:54:22.756Z,22.90
2022-10-14T09:56:50.203Z,22.60
2022-10-14T09:59:23.501Z,22.30
2022-10-14T10:01:51.135Z,22.10
2022-10-14T10:04:36.429Z,21.90
2022-10-14T10:07:06.054Z,21.70
2022-10-14T10:09:33.129Z,21.70
2022-10-14T10:12:00.491Z,22.10
2022-10-14T10:14:31.895Z,22.90
2022-10-14T10:17:19.765Z,24.90
2022-10-14T10:19:57.437Z,26.80
2022-10-14T10:22:27.894Z,27.50
2022-10-14T10:25:01.184Z,27.90
2022-10-14T10:27:37.530Z,29.00
2022-10-14T10:30:24.883Z,30.20
2022-10-14T10:32:55.116Z,30.70
2022-10-14T10:35:25.397Z,31.60
2022-10-14T10:38:20.747Z,32.30
2022-10-14T10:40:53.826Z,32.50
2022-10-14T10:43:39.716Z,33.20
2022-10-14T10:46:29.587Z,33.90
2022-10-14T10:49:02.232Z,34.40
2022-10-14T10:51:38.585Z,34.00
2022-10-14T10:54:05.489Z,32.90
2022-10-14T10:56:40.652Z,32.80
2022-10-14T10:59:11.907Z,33.30
2022-10-14T11:01:50.774Z,33.60
2022-10-14T11:04:26.757Z,34.00
2022-10-14T11:07:26.959Z,34.70
2022-10-14T11:10:28.667Z,35.30
2022-10-14T11:13:07.359Z,35.90
2022-10-14T11:15:42.153Z,36.10
2022-10-14T11:18:10.500Z,36.00
2022-10-14T11:20:55.778Z,35.70
2022-10-14T11:23:41.447Z,35.90
2022-10-14T11:26:08.677Z,36.50
2022-10-14T11:28:43.116Z,36.50
2022-10-14T11:31:51.329Z,36.50
2022-10-14T11:34:36.548Z,36.50
2022-10-14T11:37:05.809Z,36.80
2022-10-14T11:39:41.762Z,37.60
2022-10-14T11:42:15.782Z,38.00
2022-10-14T11:44:44.147Z,38.60
2022-10-14T11:47:27.065Z,38.70
2022-10-14T11:50:00.132Z,38.70
2022-10-14T11:52:30.538Z,38.80
2022-10-14T11:55:12.285Z,38.60
2022-10-14T11:57:56.057Z,38.90
2022-10-14T12:00:23.011Z,39.30
2022-10-14T12:03:06.718Z,39.70
2022-10-14T12:05:46.580Z,39.90
2022-10-14T12:08:21.279Z,40.00
2022-10-14T12:11:10.926Z,40.20
2022-10-14T12:14:00.426Z,40.40
2022-10-14T12:16:29.943Z,40.50
2022-10-14T12:19:00.032Z,40.50
2022-10-14T12:21:48.208Z,40.00
2022-10-14T12:24:20.584Z,38.90
2022-10-14T12:26:50.263Z,38.80
2022-10-14T12:29:27.849Z,39.20
2022-10-14T12:32:15.698Z,39.60
2022-10-14T12:34:48.115Z,38.90
2022-10-14T12:37:32.583Z,38.80
2022-10-14T12:40:02.671Z,39.10
2022-10-14T12:42:32.020Z,39.70
2022-10-14T12:45:14.867Z,39.80
2022-10-14T12:47:57.228Z,39.00
2022-10-14T12:50:37.472Z,37.20
2022-10-14T12:53:30.888Z,36.60
2022-10-14T12:55:58.793Z,36.80
2022-10-14T12:58:32.846Z,37.20
2022-10-14T13:01:03.743Z,37.30
2022-10-14T13:03:32.280Z,36.60
2022-10-14T13:06:20.571Z,35.40
2022-10-14T13:09:07.730Z,34.20
2022-10-14T13:11:34.974Z,33.00
2022-10-14T13:14:04.513Z,32.20
2022-10-14T13:16:33.144Z,31.40
2022-10-14T13:19:00.472Z,30.90
2022-10-14T13:21:27.433Z,30.40
2022-10-14T13:23:55.441Z,29.90
2022-10-14T13:26:23.472Z,29.50
2022-10-14T13:29:02.367Z,29.10
2022-10-14T13:31:35.672Z,28.70
2022-10-14T13:34:13.311Z,28.40
2022-10-14T13:36:46.423Z,28.20
2022-10-14T13:39:13.377Z,28.00
2022-10-14T13:41:41.206Z,27.70
2022-10-14T13:44:10.189Z,27.50
2022-10-14T13:46:44.282Z,27.20
2022-10-14T13:49:17.267Z,26.90
2022-10-14T13:51:54.519Z,26.70
2022-10-14T13:54:23.106Z,26.50
2022-10-14T14:00:22.612Z,26.00
2022-10-14T14:02:36.983Z,25.80
2022-10-14T14:05:27.890Z,25.70
2022-10-14T14:11:15.675Z,25.50
2022-10-14T14:13:32.480Z,25.60
2022-10-14T14:16:04.350Z,26.50
2022-10-14T14:18:56.086Z,27.40
2022-10-14T14:21:36.217Z,27.50
2022-10-14T14:26:55.448Z,26.70
2022-10-14T14:29:29.190Z,26.20
2022-10-14T14:32:11.792Z,25.80
2022-10-14T14:34:39.005Z,25.70
2022-10-14T14:37:33.905Z,26.00
2022-10-14T14:39:58.692Z,26.30
2022-10-14T14:42:39.520Z,26.70
2022-10-14T14:45:28.367Z,26.80
2022-10-14T14:47:56.139Z,26.70
2022-10-14T14:50:31.454Z,26.60
2022-10-14T14:53:01.002Z,26.40
2022-10-14T14:55:34.063Z,26.10
2022-10-14T14:58:01.245Z,25.80
2022-10-14T15:00:28.649Z,25.50
2022-10-14T15:02:58.786Z,25.10
2022-10-14T15:05:25.671Z,24.80
2022-10-14T15:07:52.733Z,24.40
2022-10-14T15:10:21.010Z,24.20
2022-10-14T15:12:51.630Z,24.00
2022-10-14T15:15:30.521Z,23.90
2022-10-14T15:18:16.665Z,23.70
2022-10-14T15:20:43.696Z,23.40
2022-10-14T15:23:29.360Z,23.20
2022-10-14T15:25:59.222Z,23.10
2022-10-14T15:28:30.814Z,22.90
2022-10-14T15:31:02.999Z,22.90
2022-10-14T15:33:32.767Z,22.90
2022-10-14T15:36:02.829Z,22.80
2022-10-14T15:41:04.128Z,22.50
2022-10-14T15:43:32.422Z,22.40
2022-10-14T15:46:18.408Z,22.30
2022-10-14T15:49:02.078Z,22.20
2022-10-14T15:51:30.775Z,22.10
2022-10-14T15:53:58.253Z,22.00
2022-10-14T15:56:27.397Z,22.00
2022-10-14T15:58:54.539Z,22.00
2022-10-14T16:01:22.295Z,22.00
2022-10-14T16:03:52.573Z,21.80
2022-10-14T16:06:22.936Z,21.80
2022-10-14T16:08:50.147Z,21.70
2022-10-14T16:11:22.945Z,21.70
2022-10-14T16:13:49.963Z,21.60
2022-10-14T16:16:19.289Z,21.50
2022-10-14T16:18:46.282Z,21.50
2022-10-14T16:21:14.238Z,21.40
2022-10-14T16:23:41.139Z,21.40
2022-10-14T16:26:07.999Z,21.30
2022-10-14T16:28:35.083Z,21.30
2022-10-14T16:31:04.864Z,21.20
2022-10-14T16:33:32.959Z,21.10
2022-10-14T16:36:02.290Z,21.00
2022-10-14T16:38:29.507Z,21.00
2022-10-14T16:40:57.516Z,20.90
2022-10-14T16:43:24.649Z,20.90
2022-10-14T16:45:51.760Z,20.80
2022-10-14T16:48:19.617Z,20.80
2022-10-14T16:50:53.157Z,20.60
2022-10-14T16:53:38.444Z,20.60
2022-10-14T16:56:25.577Z,20.50
2022-10-14T16:58:52.523Z,20.50
2022-10-14T17:01:19.409Z,20.40
2022-10-14T17:03:47.764Z,20.40
2022-10-14T17:06:14.681Z,20.30
2022-10-14T17:08:41.900Z,20.30
2022-10-14T17:11:09.451Z,20.30
2022-10-14T17:13:36.757Z,20.20
2022-10-14T17:16:04.007Z,20.20
2022-10-14T17:18:35.064Z,20.10
2022-10-14T17:21:09.172Z,20.10
2022-10-14T17:23:36.264Z,20.00
2022-10-14T17:26:04.516Z,19.90
2022-10-14T17:28:32.206Z,19.90
2022-10-14T17:31:01.683Z,19.80
2022-10-14T17:33:32.126Z,19.70
2022-10-14T17:36:01.443Z,19.70
2022-10-14T17:38:28.925Z,19.60
2022-10-14T17:41:05.778Z,19.60
2022-10-14T17:43:33.087Z,19.50
2022-10-14T17:46:11.734Z,19.50
2022-10-14T17:48:42.489Z,19.40
2022-10-14T17:51:12.693Z,19.40
2022-10-14T17:53:39.732Z,19.30
2022-10-14T17:56:07.096Z,19.20
2022-10-14T17:58:34.014Z,19.20
2022-10-14T18:01:07.641Z,19.20
2022-10-14T18:03:34.962Z,19.20
2022-10-14T18:06:11.044Z,19.10
2022-10-14T18:08:38.784Z,19.10
2022-10-14T18:11:10.856Z,19.00
2022-10-14T18:16:12.238Z,18.90
2022-10-14T18:18:39.674Z,18.80
2022-10-14T18:21:06.838Z,18.80
2022-10-14T18:23:34.253Z,18.80
2022-10-14T18:26:08.203Z,18.70
2022-10-14T18:28:39.007Z,18.60
2022-10-14T18:31:18.840Z,18.60
2022-10-14T18:33:45.859Z,18.60
2022-10-14T18:36:16.092Z,18.50
2022-10-14T18:38:43.093Z,18.50
2022-10-14T18:41:13.981Z,18.40
2022-10-14T18:43:44.802Z,18.40
2022-10-14T18:46:15.408Z,18.40
2022-10-14T18:48:42.669Z,18.30
2022-10-14T18:51:09.753Z,18.30
2022-10-14T18:53:37.180Z,18.20
2022-10-14T18:56:12.979Z,18.20
2022-10-14T18:58:39.968Z,18.10
2022-10-14T19:01:07.083Z,18.10
2022-10-14T19:03:40.603Z,18.00
2022-10-14T19:06:08.116Z,18.00
2022-10-14T19:08:37.082Z,17.90
2022-10-14T19:11:04.407Z,17.80
2022-10-14T19:13:31.616Z,17.90
2022-10-14T19:16:08.431Z,17.80
2022-10-14T19:18:37.274Z,17.70
2022-10-14T19:21:09.544Z,17.70
2022-10-14T19:23:36.905Z,17.60
2022-10-14T19:26:04.791Z,17.60
2022-10-14T19:28:31.973Z,17.60
2022-10-14T19:30:58.968Z,17.50
2022-10-14T19:33:25.990Z,17.50
2022-10-14T19:35:57.072Z,17.50
2022-10-14T19:38:27.026Z,17.50
2022-10-14T19:40:53.967Z,17.50
2022-10-14T19:43:21.094Z,17.40
2022-10-14T19:45:50.250Z,17.30
2022-10-14T19:48:17.405Z,17.30
2022-10-14T19:50:44.386Z,17.20
2022-10-14T19:53:11.878Z,17.20
2022-10-14T19:55:39.162Z,17.10
2022-10-14T19:58:06.692Z,17.10
2022-10-14T20:00:34.121Z,17.00
2022-10-14T20:03:01.038Z,17.00
2022-10-14T20:05:29.334Z,16.90
2022-10-14T20:07:57.426Z,16.90
2022-10-14T20:10:24.525Z,16.90
2022-10-14T20:12:53.510Z,16.90
2022-10-14T20:15:20.513Z,16.80
2022-10-14T20:17:47.491Z,16.70
2022-10-14T20:20:14.488Z,16.70
2022-10-14T20:22:41.649Z,16.70
2022-10-14T20:25:08.779Z,16.70
2022-10-14T20:27:35.936Z,16.70
2022-10-14T20:30:03.678Z,16.60
2022-10-14T20:32:30.750Z,16.60
2022-10-14T20:34:57.950Z,16.60
2022-10-14T20:37:28.033Z,16.40
2022-10-14T20:39:57.967Z,16.40
2022-10-14T20:42:24.914Z,16.40
2022-10-14T20:44:51.866Z,16.30
2022-10-14T20:47:19.070Z,16.20
2022-10-14T20:49:46.225Z,16.30
2022-10-14T20:52:13.442Z,16.30
2022-10-14T20:54:40.756Z,16.30
2022-10-14T20:57:07.641Z,16.10
2022-10-14T20:59:34.581Z,16.10
2022-10-14T21:02:01.833Z,16.10
2022-10-14T21:04:28.750Z,16.10
2022-10-14T21:06:55.673Z,16.00
2022-10-14T21:09:22.573Z,16.00
2022-10-14T21:11:49.612Z,15.90
2022-10-14T21:14:17.954Z,15.80
2022-10-14T21:16:45.014Z,15.70
2022-10-14T21:19:12.706Z,15.70
2022-10-14T21:21:42.003Z,15.70
2022-10-14T21:24:09.325Z,15.60
2022-10-14T21:26:36.299Z,15.50
2022-10-14T21:29:03.310Z,15.50
2022-10-14T21:31:30.322Z,15.50
2022-10-14T21:34:02.523Z,15.40
2022-10-14T21:36:33.311Z,15.50
2022-10-14T21:39:04.070Z,15.40
2022-10-14T21:41:31.115Z,15.40
2022-10-14T21:43:59.365Z,15.40
2022-10-14T21:46:26.741Z,15.30
2022-10-14T21:48:54.574Z,15.30
2022-10-14T21:51:25.081Z,15.30
2022-10-14T21:53:52.147Z,15.30
2022-10-14T21:56:21.401Z,15.30
2022-10-14T21:58:48.587Z,15.30
2022-10-14T22:01:16.645Z,15.30
2022-10-14T22:03:43.998Z,15.20
2022-10-14T22:06:14.889Z,15.10
2022-10-14T22:08:42.832Z,15.00
2022-10-14T22:11:17.047Z,15.00
2022-10-14T22:13:45.069Z,15.00
2022-10-14T22:16:13.680Z,14.90
2022-10-14T22:18:45.047Z,14.90
2022-10-14T22:21:13.095Z,14.80
2022-10-14T22:23:40.729Z,14.70
2022-10-14T22:26:08.340Z,14.70
2022-10-14T22:28:35.342Z,14.70
2022-10-14T22:31:05.359Z,14.70
2022-10-14T22:33:33.603Z,14.60
2022-10-14T22:36:07.608Z,14.60
2022-10-14T22:38:34.623Z,14.60
2022-10-14T22:41:05.092Z,14.60
2022-10-14T22:43:32.288Z,14.60
2022-10-14T22:46:00.088Z,14.60
2022-10-14T22:48:27.004Z,14.60
2022-10-14T22:50:53.976Z,14.60
2022-10-14T22:53:21.005Z,14.60
2022-10-14T22:55:51.804Z,14.60
2022-10-14T22:58:18.716Z,14.60
2022-10-14T23:00:45.690Z,14.60
2022-10-14T23:03:12.670Z,14.60
2022-10-14T23:05:39.519Z,14.60
2022-10-14T23:08:15.195Z,14.50
2022-10-14T23:10:42.511Z,14.50
2022-10-14T23:13:09.571Z,14.50
2022-10-14T23:15:36.693Z,14.40
2022-10-14T23:18:03.727Z,14.50
2022-10-14T23:20:32.737Z,14.50
2022-10-14T23:22:59.687Z,14.50
2022-10-14T23:25:26.668Z,14.50
2022-10-14T23:27:53.533Z,14.40
2022-10-14T23:30:20.374Z,14.30
2022-10-14T23:32:47.370Z,14.30
2022-10-14T23:35:14.202Z,14.30
2022-10-14T23:37:41.250Z,14.20
2022-10-14T23:40:09.012Z,14.10
2022-10-14T23:42:36.294Z,14.10
2022-10-14T23:45:03.355Z,14.10
2022-10-14T23:47:31.671Z,14.00
2022-10-14T23:49:58.799Z,14.10
2022-10-14T23:52:25.757Z,14.10
2022-10-14T23:54:52.747Z,14.00
2022-10-14T23:57:20.229Z,13.90
2022-10-14T23:59:47.448Z,13.90
